Aérodrome :
LOGIN :

S'inscrire | Disclaimer

   EN    FR    IT 

 










Légende :    VFR   VFR Marginal   IFR   IFR Intensif   IFR Très Intensif
Visi : 
Plafond : 
>= 8 km
>= 3000ft
5 à 8 km
1000 à 3000 ft
1500m à 5 km
500 à 1000 ft
800 à 1500m
200 à 500 ft
< 800m
< 200 ft
Symboles :   Orages  Brouillard  Fortes neiges  Fortes précipitations  Vent > 20 kt
SIGMETs :   Divers  Orages  Givrage  Turbulence  Onde Orograph.  Cendres Volcan.







- Altitude de l'aérodrome : 147 ft
- Code IATA : DUS


EDDL - Düsseldorf Int.

DERNIER METAR :
  • 180320Z 04002KT 8000 MIFG FEW032 10/10 Q1015 NOSIG

METARs EXPIRÉS :
  • 180250Z 36002KT 9000 MIFG FEW032 10/10 Q1015 NOSIG
  • 180220Z VRB02KT 9999 MIFG NSC 10/10 Q1015 NOSIG
  • 180150Z 04004KT 9999 MIFG NSC 11/10 Q1015 NOSIG
  • 180120Z VRB02KT 9999 MIFG NSC 11/11 Q1015 NOSIG
  • 180050Z VRB02KT 9000 MIFG NSC 11/10 Q1016 NOSIG

TAF TAF EDDL
Valide du 18 à 00h jusqu'au 19 à 06h UTC


172300Z 1800/1906 VRB03KT 8000 FEW035
PROB30
TEMPO 1801/1806 0700 FG
BECMG 1805/1808 16007KT
Pas de NOTAMs connus pour ce terrain.



MET'MAP, la Météo Aéronautique d'un coup d'oeil ! - Copyright ORBIFLY Décembre 2007 - Disclaimer

ORBIFLY MET'MAP TEAM :

Programmation & Développement : Alexandra Zaïnal
Conception & Développement : Baudouin d'Aumeries
Co-Programmation & Développement : Marc-Olivier Méhu
Soutien technique & logistique : Manuel Goepfert

Contact : metmap@orbifly.com




SOURCES & CREDITS :

   NOAA